Time;durP1;ratioP1;P1;durP2;ratioP2;P2;SDS_P1;SDS_P2;PMS_P1;PMS_P2;Temp;Humidity;BMP_temperature;BMP_pressure;BME280_temperature;BME280_humidity;BME280_pressure;Samples;Min_cycle;Max_cycle;Signal;HPM_P1;HPM_P2
2021/06/08 00:02:14;;;;;;;15.77;14.67;;;16.10;99.90;;;;;;4919028;29;20221;-80
2021/06/08 00:04:41;;;;;;;15.97;14.80;;;16.00;99.90;;;;;;4918740;29;20196;-79
2021/06/08 00:07:07;;;;;;;15.53;14.40;;;16.10;99.90;;;;;;4919077;29;20252;-79
2021/06/08 00:09:35;;;;;;;14.30;13.30;;;16.00;99.90;;;;;;4901642;29;20758;-80
2021/06/08 00:12:01;;;;;;;14.53;13.43;;;15.90;99.90;;;;;;4918726;29;20925;-80
2021/06/08 00:14:27;;;;;;;14.37;13.27;;;16.00;99.90;;;;;;4902012;29;20204;-79
2021/06/08 00:16:54;;;;;;;13.67;12.77;;;15.90;99.90;;;;;;4901626;29;20251;-80
2021/06/08 00:19:20;;;;;;;12.93;12.13;;;15.90;99.90;;;;;;4901383;29;20662;-80
2021/06/08 00:21:46;;;;;;;14.10;13.20;;;15.90;99.90;;;;;;4901548;29;20223;-80
2021/06/08 00:24:13;;;;;;;13.67;12.77;;;15.80;99.90;;;;;;4901501;29;20211;-80
2021/06/08 00:26:40;;;;;;;14.03;13.13;;;15.80;99.90;;;;;;4917544;29;20200;-79
2021/06/08 00:29:07;;;;;;;14.13;13.13;;;15.80;99.90;;;;;;4917096;29;20211;-80
2021/06/08 00:31:33;;;;;;;13.67;12.57;;;15.80;99.90;;;;;;4901270;29;20204;-80
2021/06/08 00:33:59;;;;;;;15.07;13.97;;;15.80;99.90;;;;;;4916804;29;20212;-79
2021/06/08 00:36:25;;;;;;;14.83;13.73;;;15.80;99.90;;;;;;4917977;29;20196;-79
2021/06/08 00:38:52;;;;;;;14.17;13.17;;;15.80;99.90;;;;;;4901395;29;20197;-80
2021/06/08 00:41:20;;;;;;;14.67;13.67;;;15.80;99.90;;;;;;4900870;29;20681;-79
2021/06/08 00:43:47;;;;;;;13.57;12.67;;;15.80;99.90;;;;;;4900837;29;20216;-80
2021/06/08 00:46:14;;;;;;;13.30;12.40;;;15.80;99.90;;;;;;4900944;29;20204;-79
2021/06/08 00:48:40;;;;;;;14.93;13.43;;;15.70;99.90;;;;;;4916423;29;20227;-80
2021/06/08 00:51:06;;;;;;;13.60;12.73;;;15.70;99.90;;;;;;4916736;29;20200;-79
2021/06/08 00:53:32;;;;;;;13.80;12.90;;;15.70;99.90;;;;;;4900684;29;20236;-77
2021/06/08 00:55:59;;;;;;;13.67;12.73;;;15.70;99.90;;;;;;4914335;29;20199;-77
2021/06/08 00:58:25;;;;;;;14.07;13.07;;;15.70;99.90;;;;;;4919055;29;20650;-78
2021/06/08 01:00:53;;;;;;;14.17;13.17;;;15.70;99.90;;;;;;4897660;29;20252;-77
2021/06/08 01:03:20;;;;;;;14.47;13.20;;;15.70;99.90;;;;;;4914587;29;20788;-78
2021/06/08 01:05:46;;;;;;;14.80;13.80;;;15.70;99.90;;;;;;4901046;29;20207;-77
2021/06/08 01:08:12;;;;;;;13.90;13.00;;;15.70;99.90;;;;;;4917622;29;20231;-77
2021/06/08 01:10:39;;;;;;;14.57;13.40;;;15.70;99.90;;;;;;4900240;29;20578;-78
2021/06/08 01:13:05;;;;;;;14.53;13.43;;;15.70;99.90;;;;;;4900084;29;20227;-78
2021/06/08 01:15:31;;;;;;;14.23;13.30;;;15.70;99.90;;;;;;4917146;29;20259;-78
2021/06/08 01:18:00;;;;;;;14.00;13.10;;;15.70;99.90;;;;;;4900451;29;20200;-78
2021/06/08 01:20:26;;;;;;;14.00;13.00;;;15.70;99.90;;;;;;4900443;29;20207;-78
2021/06/08 01:22:54;;;;;;;7.00;6.40;;;15.70;99.90;;;;;;4917159;29;20220;-77
2021/06/08 01:25:20;;;;;;;7.37;6.73;;;15.70;99.90;;;;;;4917225;29;20255;-78
2021/06/08 01:27:47;;;;;;;8.30;5.97;;;15.70;99.90;;;;;;4917052;29;20728;-77
2021/06/08 01:30:15;;;;;;;6.80;6.20;;;15.70;99.90;;;;;;4899964;29;20204;-77
2021/06/08 01:32:44;;;;;;;11.00;10.10;;;15.70;99.90;;;;;;4916742;29;20227;-77
2021/06/08 01:35:12;;;;;;;8.57;7.00;;;15.70;99.90;;;;;;4900276;29;20693;-78
2021/06/08 01:37:39;;;;;;;11.00;10.20;;;15.70;99.90;;;;;;4915728;29;20197;-77
2021/06/08 01:40:09;;;;;;;14.90;13.90;;;15.70;99.90;;;;;;4914975;29;20207;-78
2021/06/08 01:42:36;;;;;;;9.90;9.17;;;15.70;99.90;;;;;;4900540;29;20238;-78
2021/06/08 01:45:03;;;;;;;13.00;12.10;;;15.60;99.90;;;;;;4902468;29;20586;-79
2021/06/08 01:47:30;;;;;;;14.40;13.40;;;15.70;99.90;;;;;;4919392;29;20252;-79
2021/06/08 01:49:56;;;;;;;14.80;13.70;;;15.70;99.90;;;;;;4901692;29;20208;-77
2021/06/08 01:52:34;;;;;;;13.43;12.43;;;15.70;99.90;;;;;;4901594;29;20228;-78
2021/06/08 01:55:08;;;;;;;14.63;13.63;;;15.60;99.90;;;;;;4896030;29;20210;-79
2021/06/08 01:57:41;;;;;;;6.83;6.13;;;15.60;99.90;;;;;;4901761;29;20204;-78
2021/06/08 02:00:40;;;;;;;8.40;7.57;;;15.60;99.90;;;;;;5120686;27;20580;-80
2021/06/08 02:03:13;;;;;;;6.87;6.17;;;15.70;99.90;;;;;;5069357;28;20762;-79
2021/06/08 02:05:46;;;;;;;8.70;7.97;;;15.70;99.90;;;;;;5060961;28;20199;-80
2021/06/08 02:08:28;;;;;;;12.43;11.43;;;15.70;99.90;;;;;;5061221;28;20191;-79
2021/06/08 02:10:58;;;;;;;10.27;9.50;;;15.70;99.90;;;;;;5059964;28;20227;-80
2021/06/08 02:13:30;;;;;;;6.57;5.97;;;15.70;99.90;;;;;;5096940;28;20729;-79
2021/06/08 02:16:02;;;;;;;8.07;6.70;;;15.70;99.90;;;;;;5072335;28;20723;-79
2021/06/08 02:18:29;;;;;;;8.30;7.50;;;15.70;99.90;;;;;;5072690;28;20218;-79
2021/06/08 02:20:58;;;;;;;14.00;13.07;;;15.60;99.90;;;;;;5072746;28;20201;-80
2021/06/08 02:23:25;;;;;;;9.73;8.83;;;15.60;99.90;;;;;;5064560;28;20219;-79
2021/06/08 02:25:53;;;;;;;8.60;7.80;;;15.70;99.90;;;;;;5060244;28;20195;-79
2021/06/08 02:28:24;;;;;;;8.47;7.67;;;15.70;99.90;;;;;;5059934;28;20649;-79
2021/06/08 02:30:54;;;;;;;8.77;7.97;;;15.70;99.90;;;;;;5059314;28;20200;-79
2021/06/08 02:33:24;;;;;;;11.70;10.80;;;15.70;99.90;;;;;;5060850;28;20225;-79
2021/06/08 02:35:51;;;;;;;10.00;9.10;;;15.70;99.90;;;;;;5060864;28;20192;-79
2021/06/08 02:38:19;;;;;;;15.83;14.67;;;15.70;99.90;;;;;;5063772;28;20576;-80
2021/06/08 02:40:47;;;;;;;16.20;15.10;;;15.80;99.90;;;;;;5060545;28;20673;-80
2021/06/08 02:43:13;;;;;;;16.90;15.70;;;15.70;99.90;;;;;;5050376;28;20270;-77
2021/06/08 02:45:41;;;;;;;18.10;16.70;;;15.70;99.90;;;;;;5049486;28;20282;-83
2021/06/08 02:48:10;;;;;;;15.77;14.53;;;15.70;99.90;;;;;;5067472;28;20196;-79
2021/06/08 02:50:39;;;;;;;16.07;14.97;;;15.70;99.90;;;;;;5046936;28;20212;-78
2021/06/08 02:53:06;;;;;;;17.40;16.20;;;15.70;99.90;;;;;;5056229;28;20222;-77
2021/06/08 02:55:34;;;;;;;15.47;14.47;;;15.70;99.90;;;;;;5051632;28;20274;-78
2021/06/08 02:58:01;;;;;;;16.27;15.07;;;15.70;99.90;;;;;;5060563;28;20194;-77
2021/06/08 03:00:28;;;;;;;16.00;15.00;;;15.70;99.90;;;;;;5055601;28;20184;-78
2021/06/08 03:02:57;;;;;;;15.83;14.73;;;15.70;99.90;;;;;;5049638;28;20238;-77
2021/06/08 03:05:27;;;;;;;16.63;15.53;;;15.70;99.90;;;;;;5051540;28;20196;-77
2021/06/08 03:07:58;;;;;;;16.70;15.50;;;15.80;99.90;;;;;;5049778;28;20668;-77
2021/06/08 03:10:27;;;;;;;16.80;15.60;;;15.70;99.90;;;;;;5044418;28;20670;-77
2021/06/08 03:12:56;;;;;;;14.07;13.07;;;15.70;99.90;;;;;;5041443;28;20216;-78
2021/06/08 03:15:27;;;;;;;12.10;11.17;;;15.70;99.90;;;;;;5039162;28;20223;-78
2021/06/08 03:17:54;;;;;;;11.60;10.50;;;15.70;99.90;;;;;;5040929;28;20200;-78
2021/06/08 03:20:40;;;;;;;15.43;14.23;;;15.70;99.90;;;;;;5041363;28;20204;-77
2021/06/08 03:23:10;;;;;;;14.07;13.00;;;15.70;99.90;;;;;;5040591;28;20219;-80
2021/06/08 03:25:38;;;;;;;9.83;9.03;;;15.70;99.90;;;;;;5045402;28;20257;-78
2021/06/08 03:28:06;;;;;;;10.30;9.30;;;15.70;99.90;;;;;;5041927;28;20211;-78
2021/06/08 03:30:34;;;;;;;10.13;9.23;;;15.70;99.90;;;;;;5040978;28;20270;-78
2021/06/08 03:33:00;;;;;;;10.17;9.13;;;15.70;99.90;;;;;;5044360;28;20623;-78
2021/06/08 03:35:29;;;;;;;12.40;11.40;;;15.70;99.90;;;;;;5044387;28;20868;-78
2021/06/08 03:37:57;;;;;;;14.80;13.80;;;15.70;99.90;;;;;;5042795;28;20250;-77
2021/06/08 03:40:27;;;;;;;10.37;9.43;;;15.70;99.90;;;;;;5043592;28;20204;-80
2021/06/08 03:42:54;;;;;;;10.17;9.27;;;15.80;99.90;;;;;;5041486;28;20211;-77
2021/06/08 03:45:22;;;;;;;15.87;14.47;;;15.80;99.90;;;;;;5039229;28;20199;-77
2021/06/08 03:47:50;;;;;;;11.43;10.43;;;15.70;99.90;;;;;;5043128;28;20242;-78
2021/06/08 03:50:16;;;;;;;14.77;13.47;;;15.80;99.90;;;;;;5043829;28;20197;-78
2021/06/08 03:52:43;;;;;;;23.20;21.30;;;15.80;99.90;;;;;;5043121;28;20219;-78
2021/06/08 03:55:11;;;;;;;23.37;21.37;;;15.80;99.90;;;;;;5042747;28;20216;-77
2021/06/08 03:57:44;;;;;;;22.73;20.80;;;15.70;99.90;;;;;;5049268;28;20211;-76
2021/06/08 04:00:12;;;;;;;21.43;19.83;;;15.80;99.90;;;;;;5043943;28;20211;-77
2021/06/08 04:02:42;;;;;;;23.70;21.57;;;15.80;99.90;;;;;;5040156;28;20211;-76
2021/06/08 04:05:10;;;;;;;24.83;22.63;;;15.80;99.90;;;;;;5040097;28;20211;-78
2021/06/08 04:07:39;;;;;;;24.43;22.50;;;15.80;99.90;;;;;;5046690;28;20205;-78
2021/06/08 04:10:08;;;;;;;23.30;21.40;;;15.80;99.90;;;;;;5044302;28;20207;-78
2021/06/08 04:12:35;;;;;;;22.37;20.57;;;15.80;99.90;;;;;;5047096;28;20727;-77
2021/06/08 04:15:04;;;;;;;21.03;19.33;;;15.90;99.90;;;;;;5049270;28;20198;-78
2021/06/08 04:17:32;;;;;;;21.57;19.97;;;15.80;99.90;;;;;;5045986;28;20200;-77
2021/06/08 04:19:59;;;;;;;21.40;19.70;;;15.90;99.90;;;;;;5035861;28;20247;-77
2021/06/08 04:22:26;;;;;;;22.00;20.27;;;15.90;99.90;;;;;;5049392;28;20211;-77
2021/06/08 04:24:53;;;;;;;21.27;19.77;;;15.90;99.90;;;;;;5045254;28;20196;-77
2021/06/08 04:27:22;;;;;;;21.90;20.40;;;16.00;99.90;;;;;;5049561;28;20204;-77
2021/06/08 04:29:49;;;;;;;21.47;19.97;;;16.00;99.90;;;;;;5035114;28;20196;-78
2021/06/08 04:32:17;;;;;;;20.83;19.33;;;16.00;99.90;;;;;;5050852;28;20763;-78
2021/06/08 04:34:46;;;;;;;11.07;10.03;;;16.10;99.90;;;;;;5036071;28;20193;-78
2021/06/08 04:37:13;;;;;;;19.20;17.90;;;16.10;99.90;;;;;;5042852;28;20203;-78
2021/06/08 04:39:39;;;;;;;13.33;12.07;;;16.10;99.90;;;;;;5048125;28;20577;-78
2021/06/08 04:42:07;;;;;;;15.30;14.00;;;16.10;99.90;;;;;;5065325;22;20744;-76
2021/06/08 04:44:34;;;;;;;12.97;11.90;;;16.10;99.90;;;;;;5049941;28;20205;-76
2021/06/08 04:47:00;;;;;;;12.70;11.60;;;16.10;99.90;;;;;;5034920;28;20197;-79
2021/06/08 04:49:28;;;;;;;13.20;12.00;;;16.10;99.90;;;;;;5039954;28;20201;-76
2021/06/08 04:51:55;;;;;;;12.20;11.13;;;16.20;99.90;;;;;;5036706;28;20219;-76
2021/06/08 04:54:22;;;;;;;16.63;15.43;;;16.20;99.90;;;;;;5041718;28;20202;-75
2021/06/08 04:56:49;;;;;;;18.83;17.63;;;16.20;99.90;;;;;;5038798;28;20199;-75
2021/06/08 04:59:19;;;;;;;18.37;17.17;;;16.30;99.90;;;;;;5042040;28;20250;-76
2021/06/08 05:01:47;;;;;;;18.57;17.37;;;16.30;99.90;;;;;;5046352;28;20195;-76
2021/06/08 05:04:18;;;;;;;19.50;18.20;;;16.40;99.90;;;;;;5042307;28;20222;-76
2021/06/08 05:06:48;;;;;;;18.90;17.70;;;16.40;99.90;;;;;;5031885;28;20191;-76
2021/06/08 05:09:19;;;;;;;19.60;18.30;;;16.40;99.90;;;;;;5034726;28;20581;-76
2021/06/08 05:11:52;;;;;;;19.90;18.50;;;16.40;99.90;;;;;;5028852;28;20190;-76
2021/06/08 05:14:19;;;;;;;18.60;17.40;;;16.50;99.90;;;;;;5040394;28;20847;-76
2021/06/08 05:16:47;;;;;;;18.57;17.37;;;16.50;99.90;;;;;;5043891;28;20197;-76
2021/06/08 05:19:14;;;;;;;16.83;15.73;;;16.60;99.90;;;;;;5036062;28;20211;-75
2021/06/08 05:21:42;;;;;;;12.60;11.70;;;16.70;99.90;;;;;;5041211;28;20202;-76
2021/06/08 05:24:12;;;;;;;14.57;13.67;;;16.70;99.90;;;;;;5043644;28;20627;-76
2021/06/08 05:26:39;;;;;;;15.30;14.30;;;16.70;99.90;;;;;;5032469;28;20262;-76
2021/06/08 05:29:06;;;;;;;12.73;11.83;;;16.70;99.90;;;;;;5036250;28;20199;-76
2021/06/08 05:31:33;;;;;;;16.70;15.60;;;16.70;99.90;;;;;;5042364;28;20591;-76
2021/06/08 05:34:00;;;;;;;17.80;16.70;;;16.70;99.90;;;;;;5043095;28;20696;-76
2021/06/08 05:36:30;;;;;;;17.00;16.00;;;16.70;99.90;;;;;;5042188;28;20249;-77
2021/06/08 05:38:56;;;;;;;17.80;16.70;;;16.80;99.90;;;;;;5036634;28;20214;-76
2021/06/08 05:41:24;;;;;;;17.67;16.67;;;16.70;99.90;;;;;;5031898;28;20208;-75
2021/06/08 05:43:50;;;;;;;17.63;16.60;;;16.70;99.90;;;;;;5022359;28;20275;-75
2021/06/08 05:46:17;;;;;;;17.73;16.63;;;16.70;99.90;;;;;;5034257;28;20212;-76
2021/06/08 05:48:43;;;;;;;17.10;16.10;;;16.80;99.90;;;;;;5041506;28;20625;-75
2021/06/08 05:51:10;;;;;;;16.43;15.43;;;16.90;99.90;;;;;;5038789;28;20208;-76
2021/06/08 05:53:38;;;;;;;17.13;16.13;;;16.90;99.90;;;;;;5045197;28;20228;-75
2021/06/08 05:56:06;;;;;;;17.83;16.67;;;16.90;99.90;;;;;;5040022;28;20220;-76
2021/06/08 05:58:34;;;;;;;17.87;16.47;;;17.00;99.90;;;;;;5039184;28;20557;-76
2021/06/08 06:01:02;;;;;;;18.20;16.90;;;17.00;99.90;;;;;;5034217;28;20199;-75
2021/06/08 06:03:29;;;;;;;17.10;16.10;;;17.00;99.90;;;;;;5039380;28;20220;-76
2021/06/08 06:05:57;;;;;;;16.83;15.83;;;17.00;99.90;;;;;;5039754;28;20197;-76
2021/06/08 06:08:25;;;;;;;16.07;15.17;;;17.00;99.90;;;;;;5033541;28;20206;-76
2021/06/08 06:10:51;;;;;;;16.00;15.00;;;17.00;99.90;;;;;;5049672;28;20694;-76
2021/06/08 06:13:20;;;;;;;15.80;14.80;;;17.00;99.90;;;;;;5039432;28;20239;-76
2021/06/08 06:15:48;;;;;;;16.23;15.23;;;17.00;99.90;;;;;;5046685;28;20209;-76
2021/06/08 06:18:16;;;;;;;15.60;14.60;;;17.10;99.90;;;;;;5032735;28;20252;-75
2021/06/08 06:20:44;;;;;;;16.10;15.10;;;17.00;99.90;;;;;;5023675;28;20661;-76
2021/06/08 06:23:11;;;;;;;16.60;15.60;;;17.10;99.90;;;;;;5039225;28;20222;-76
2021/06/08 06:25:38;;;;;;;16.37;15.37;;;17.10;99.90;;;;;;5039617;28;20207;-76
2021/06/08 06:28:04;;;;;;;15.73;14.80;;;17.20;99.90;;;;;;5038219;28;20231;-76
2021/06/08 06:30:33;;;;;;;17.00;16.00;;;17.20;99.90;;;;;;5041536;28;20190;-76
2021/06/08 06:33:01;;;;;;;16.67;15.67;;;17.30;99.90;;;;;;5032490;28;20226;-76
2021/06/08 06:35:27;;;;;;;17.33;16.13;;;17.30;99.90;;;;;;5038967;28;20316;-76
2021/06/08 06:37:55;;;;;;;17.90;16.80;;;17.40;99.90;;;;;;5039664;28;20218;-76
2021/06/08 06:40:27;;;;;;;17.53;16.43;;;17.50;99.90;;;;;;5038240;28;20569;-76
2021/06/08 06:43:02;;;;;;;16.70;15.43;;;17.50;99.90;;;;;;5050910;28;20737;-75
2021/06/08 06:45:29;;;;;;;17.97;16.67;;;17.70;99.90;;;;;;5042430;28;20252;-76
2021/06/08 06:48:02;;;;;;;17.50;16.30;;;17.70;99.90;;;;;;5035270;28;20199;-76
2021/06/08 06:50:31;;;;;;;19.03;17.63;;;17.70;99.90;;;;;;5042906;28;20283;-76
2021/06/08 06:52:58;;;;;;;18.83;17.43;;;17.80;99.90;;;;;;5043136;28;20947;-76
2021/06/08 06:55:25;;;;;;;18.83;17.50;;;17.90;99.90;;;;;;5039476;28;20206;-76
2021/06/08 06:57:53;;;;;;;17.23;15.93;;;17.90;99.90;;;;;;5043436;28;20196;-76
2021/06/08 07:00:20;;;;;;;16.37;15.20;;;18.00;99.90;;;;;;5042910;28;20219;-77
2021/06/08 07:02:48;;;;;;;8.03;6.13;;;18.10;99.90;;;;;;5037878;28;20215;-76
2021/06/08 07:05:16;;;;;;;8.03;6.83;;;18.20;99.90;;;;;;5037089;28;20561;-76
2021/06/08 07:07:46;;;;;;;13.37;12.37;;;18.20;99.90;;;;;;5032847;28;20202;-76
2021/06/08 07:10:16;;;;;;;17.07;15.70;;;18.20;99.90;;;;;;5041088;28;20190;-76
2021/06/08 07:12:44;;;;;;;14.30;13.03;;;18.20;99.90;;;;;;5034476;28;20298;-76
2021/06/08 07:15:12;;;;;;;8.47;7.03;;;18.20;99.90;;;;;;5041807;28;20206;-76
2021/06/08 07:17:39;;;;;;;10.23;7.60;;;18.20;99.90;;;;;;5038020;28;20195;-76
2021/06/08 07:20:07;;;;;;;10.87;9.77;;;18.30;99.90;;;;;;5039526;28;20231;-76
2021/06/08 07:22:34;;;;;;;16.13;14.83;;;18.40;99.90;;;;;;5042244;28;20625;-76
2021/06/08 07:25:04;;;;;;;17.97;16.47;;;18.60;99.90;;;;;;5041110;28;20207;-76
2021/06/08 07:27:31;;;;;;;15.50;14.20;;;18.70;99.90;;;;;;5041790;28;20200;-76
2021/06/08 07:29:58;;;;;;;11.73;10.53;;;18.80;99.90;;;;;;5047021;28;20554;-76
2021/06/08 07:32:27;;;;;;;8.80;7.90;;;18.80;99.90;;;;;;5041969;28;20220;-76
2021/06/08 07:35:02;;;;;;;13.27;12.07;;;18.90;99.90;;;;;;5041812;28;20203;-76
2021/06/08 07:37:33;;;;;;;14.97;13.77;;;19.00;99.90;;;;;;5037478;28;20616;-76
2021/06/08 07:40:05;;;;;;;14.63;13.23;;;19.10;99.90;;;;;;5045613;28;20215;-76
2021/06/08 07:42:38;;;;;;;14.87;13.43;;;19.10;99.90;;;;;;5037896;28;20343;-76
2021/06/08 07:45:06;;;;;;;10.17;8.23;;;19.10;99.90;;;;;;5042033;28;20220;-76
2021/06/08 07:47:33;;;;;;;9.83;7.97;;;19.30;99.90;;;;;;5043374;28;20192;-76
2021/06/08 07:50:02;;;;;;;10.23;9.33;;;19.50;99.90;;;;;;5042167;28;20185;-76
2021/06/08 07:52:29;;;;;;;10.60;8.33;;;19.80;99.90;;;;;;5036386;28;20221;-78
2021/06/08 07:54:56;;;;;;;10.30;9.30;;;20.00;99.90;;;;;;5045318;28;20201;-77
2021/06/08 07:57:24;;;;;;;12.63;8.50;;;20.10;99.90;;;;;;5040799;28;20207;-76
2021/06/08 07:59:51;;;;;;;9.87;8.87;;;20.30;99.90;;;;;;5037274;28;20210;-76
2021/06/08 08:02:19;;;;;;;11.57;10.47;;;20.40;99.90;;;;;;5041650;28;20695;-76
2021/06/08 08:04:49;;;;;;;10.43;8.73;;;20.50;99.90;;;;;;5041680;28;20202;-77
2021/06/08 08:07:18;;;;;;;9.87;8.53;;;20.40;99.90;;;;;;5041851;28;20205;-76
2021/06/08 08:09:45;;;;;;;10.07;8.30;;;20.40;99.90;;;;;;5039113;28;20679;-76
2021/06/08 08:12:12;;;;;;;13.40;12.30;;;20.30;99.90;;;;;;5034003;28;20229;-76
2021/06/08 08:14:42;;;;;;;10.80;8.37;;;20.20;99.90;;;;;;5040425;28;20676;-76
2021/06/08 08:17:10;;;;;;;10.23;9.23;;;20.10;99.90;;;;;;5043732;28;20233;-77
2021/06/08 08:19:36;;;;;;;11.07;9.93;;;19.90;99.90;;;;;;5039056;28;20215;-77
2021/06/08 08:22:03;;;;;;;14.87;13.57;;;19.80;99.90;;;;;;5040263;28;20243;-76
2021/06/08 08:24:29;;;;;;;10.17;9.17;;;19.50;99.90;;;;;;5041717;28;20211;-76
2021/06/08 08:26:56;;;;;;;15.30;13.80;;;19.40;99.90;;;;;;5037573;28;20215;-76
2021/06/08 08:29:22;;;;;;;17.10;15.60;;;19.30;99.90;;;;;;5042628;28;20582;-76
2021/06/08 08:31:50;;;;;;;20.57;18.97;;;19.20;99.90;;;;;;5037287;28;20196;-76
2021/06/08 08:34:16;;;;;;;19.43;17.93;;;19.20;99.90;;;;;;5037072;28;20672;-76
2021/06/08 08:36:43;;;;;;;20.33;18.83;;;19.20;99.90;;;;;;5031840;28;20207;-76
2021/06/08 08:39:11;;;;;;;18.73;17.30;;;19.10;99.90;;;;;;5040991;28;20211;-76
2021/06/08 08:41:38;;;;;;;19.07;17.67;;;19.10;99.90;;;;;;5043901;28;20204;-76
2021/06/08 08:44:06;;;;;;;19.07;17.60;;;19.20;99.90;;;;;;5039853;28;20677;-76
2021/06/08 08:46:35;;;;;;;20.50;18.90;;;19.30;99.90;;;;;;5036510;28;20196;-76
2021/06/08 08:49:04;;;;;;;21.40;19.70;;;19.50;99.90;;;;;;5047822;28;20198;-76
2021/06/08 08:51:31;;;;;;;20.07;18.57;;;19.80;99.90;;;;;;5037980;28;20202;-76
2021/06/08 08:53:59;;;;;;;19.73;18.07;;;20.10;99.90;;;;;;5040460;28;20787;-76
2021/06/08 08:56:27;;;;;;;14.17;12.77;;;20.40;99.90;;;;;;5040782;28;20196;-76
2021/06/08 08:58:54;;;;;;;13.23;11.00;;;20.50;99.90;;;;;;5039998;28;20232;-77
2021/06/08 09:01:21;;;;;;;14.70;11.93;;;20.50;99.90;;;;;;5032280;28;20217;-76
2021/06/08 09:03:48;;;;;;;12.23;10.90;;;20.60;99.90;;;;;;5040676;28;20220;-76
2021/06/08 09:06:17;;;;;;;12.60;10.03;;;20.70;99.90;;;;;;5034983;28;20281;-76
2021/06/08 09:08:43;;;;;;;12.33;10.77;;;21.00;99.90;;;;;;5027709;28;20604;-76
2021/06/08 09:11:11;;;;;;;13.27;11.50;;;21.10;99.90;;;;;;5039118;28;20266;-76
2021/06/08 09:13:38;;;;;;;10.67;9.57;;;21.10;99.90;;;;;;5040160;28;20780;-77
2021/06/08 09:16:08;;;;;;;17.50;16.10;;;21.20;99.90;;;;;;5039181;28;20210;-76
2021/06/08 09:18:35;;;;;;;18.07;16.57;;;21.10;99.90;;;;;;5042645;28;20211;-76
2021/06/08 09:21:18;;;;;;;18.43;16.93;;;21.10;99.90;;;;;;5037717;28;20196;-77
2021/06/08 09:23:44;;;;;;;19.33;17.70;;;21.10;99.90;;;;;;5031123;28;20245;-76
2021/06/08 09:26:11;;;;;;;18.20;16.60;;;21.10;99.90;;;;;;5043611;28;20694;-77
2021/06/08 09:28:38;;;;;;;12.13;10.80;;;21.10;99.90;;;;;;5034156;28;20573;-77
2021/06/08 09:31:10;;;;;;;11.60;10.40;;;21.00;99.90;;;;;;5040205;28;20268;-76
2021/06/08 09:33:38;;;;;;;13.80;12.60;;;20.90;99.90;;;;;;5039154;28;20219;-76
2021/06/08 09:36:07;;;;;;;16.37;14.80;;;20.90;99.90;;;;;;5040096;28;20574;-77
2021/06/08 09:38:41;;;;;;;16.30;14.80;;;20.80;99.90;;;;;;5040229;28;20209;-76
2021/06/08 09:41:15;;;;;;;19.23;17.23;;;20.70;99.90;;;;;;5038633;28;20686;-76
2021/06/08 09:44:04;;;;;;;25.30;23.20;;;20.40;99.90;;;;;;5038395;28;20253;-77
2021/06/08 09:46:34;;;;;;;22.07;20.33;;;20.40;99.90;;;;;;5035864;28;20206;-76
2021/06/08 09:49:02;;;;;;;16.27;14.77;;;20.30;99.90;;;;;;5036240;28;20686;-76
2021/06/08 09:51:53;;;;;;;13.57;12.13;;;20.50;99.90;;;;;;5039731;28;20202;-76
2021/06/08 09:54:31;;;;;;;15.40;13.50;;;20.70;99.90;;;;;;5039718;28;20231;-76
2021/06/08 09:57:15;;;;;;;15.53;14.03;;;20.90;99.90;;;;;;5036398;28;20576;-76
2021/06/08 09:59:43;;;;;;;22.93;20.83;;;21.30;99.90;;;;;;5042922;28;20207;-76
2021/06/08 10:02:25;;;;;;;17.23;15.43;;;21.50;99.90;;;;;;5038675;28;20224;-76
2021/06/08 10:04:52;;;;;;;20.87;18.67;;;21.60;99.90;;;;;;5038381;28;20209;-77
2021/06/08 10:07:28;;;;;;;21.03;18.87;;;21.60;99.90;;;;;;5040028;28;20203;-77
2021/06/08 10:10:08;;;;;;;21.63;18.70;;;21.60;99.90;;;;;;5040322;28;20196;-76
2021/06/08 10:12:34;;;;;;;24.60;22.40;;;21.50;99.90;;;;;;5039831;28;20225;-77
2021/06/08 10:15:09;;;;;;;21.03;18.83;;;21.50;99.90;;;;;;5032463;28;20199;-77
2021/06/08 10:17:37;;;;;;;19.93;17.77;;;21.40;99.90;;;;;;5039610;28;20279;-76
2021/06/08 10:20:21;;;;;;;19.30;17.30;;;21.40;99.90;;;;;;5040146;28;20302;-76
2021/06/08 10:22:47;;;;;;;20.33;18.30;;;21.50;99.90;;;;;;5036150;28;20218;-76
2021/06/08 10:25:16;;;;;;;18.37;16.57;;;21.60;99.90;;;;;;5043724;28;20206;-76
2021/06/08 10:27:43;;;;;;;21.27;19.10;;;21.70;99.90;;;;;;5036121;28;20198;-76
2021/06/08 10:30:10;;;;;;;21.13;18.67;;;21.60;99.90;;;;;;5046903;28;20207;-77
2021/06/08 10:32:37;;;;;;;23.47;20.97;;;21.40;99.90;;;;;;5036101;28;20609;-76
2021/06/08 10:35:05;;;;;;;29.07;26.43;;;21.20;99.90;;;;;;5045283;28;20617;-76
2021/06/08 10:37:32;;;;;;;31.03;28.37;;;21.00;99.90;;;;;;5038919;28;20203;-76
2021/06/08 10:40:00;;;;;;;27.63;24.83;;;21.00;99.90;;;;;;5041937;28;20261;-76
2021/06/08 10:42:28;;;;;;;25.63;22.93;;;20.80;99.90;;;;;;5066539;22;21477;-77
2021/06/08 10:45:06;;;;;;;28.53;25.83;;;20.70;99.90;;;;;;5041580;28;20202;-78
2021/06/08 10:47:38;;;;;;;23.20;20.73;;;20.70;99.90;;;;;;5041903;28;20202;-78
2021/06/08 10:50:22;;;;;;;22.33;20.13;;;20.90;99.90;;;;;;5042798;28;20201;-78
2021/06/08 10:52:49;;;;;;;29.97;26.87;;;21.10;99.90;;;;;;5041853;28;20214;-78
2021/06/08 10:55:18;;;;;;;25.37;22.53;;;21.00;99.90;;;;;;5064519;28;20260;-77
2021/06/08 10:57:46;;;;;;;27.20;24.40;;;21.00;99.90;;;;;;5052381;28;20210;-77
2021/06/08 11:00:43;;;;;;;27.33;24.43;;;21.10;99.90;;;;;;5054387;28;20334;-78
2021/06/08 11:03:12;;;;;;;25.80;23.30;;;21.20;99.90;;;;;;5053836;28;20231;-77
2021/06/08 11:05:55;;;;;;;26.87;24.23;;;21.40;99.90;;;;;;5064738;28;20191;-77
2021/06/08 11:09:01;;;;;;;27.33;24.60;;;21.60;99.90;;;;;;5061305;28;20277;-76
2021/06/08 11:11:48;;;;;;;22.90;20.60;;;21.60;99.90;;;;;;5060915;28;20209;-78
2021/06/08 11:14:54;;;;;;;24.53;22.03;;;21.80;99.90;;;;;;5057825;28;20213;-78
2021/06/08 11:17:45;;;;;;;27.00;24.30;;;21.90;99.90;;;;;;5058413;28;20608;-77
2021/06/08 11:20:20;;;;;;;32.30;29.20;;;22.10;99.90;;;;;;5054716;28;20238;-78
2021/06/08 11:22:58;;;;;;;29.77;26.87;;;22.20;99.90;;;;;;5055002;28;20214;-78
2021/06/08 11:25:54;;;;;;;34.33;31.00;;;22.50;99.90;;;;;;5061754;28;20195;-78
2021/06/08 11:28:21;;;;;;;35.53;32.50;;;22.40;99.90;;;;;;5060609;28;20184;-77
2021/06/08 11:30:59;;;;;;;32.90;30.00;;;22.30;99.90;;;;;;5057607;28;20203;-77
2021/06/08 11:33:32;;;;;;;32.50;29.70;;;22.40;99.90;;;;;;5057793;28;20222;-77
2021/06/08 11:35:59;;;;;;;28.77;26.33;;;22.50;99.90;;;;;;5056254;28;20734;-77
2021/06/08 11:38:28;;;;;;;30.53;27.53;;;22.70;99.90;;;;;;5053329;28;20718;-78
2021/06/08 11:40:59;;;;;;;31.63;28.67;;;22.60;99.90;;;;;;5056583;28;20223;-78
2021/06/08 11:44:03;;;;;;;29.87;27.27;;;22.60;99.90;;;;;;5060119;28;20807;-78
2021/06/08 11:46:55;;;;;;;29.13;26.53;;;22.70;99.90;;;;;;5059004;28;20191;-76
2021/06/08 11:49:23;;;;;;;28.57;25.80;;;22.80;99.90;;;;;;5057823;28;20211;-79
2021/06/08 11:52:09;;;;;;;23.70;21.27;;;22.90;99.90;;;;;;5066631;28;20592;-76
2021/06/08 11:54:46;;;;;;;24.53;22.13;;;23.10;99.90;;;;;;5056869;28;20661;-77
2021/06/08 11:57:14;;;;;;;28.53;25.83;;;23.20;99.90;;;;;;5057703;28;20209;-78
2021/06/08 11:59:59;;;;;;;23.67;21.30;;;23.10;99.90;;;;;;5062714;28;20617;-78
2021/06/08 12:02:38;;;;;;;20.50;18.50;;;23.00;99.90;;;;;;5060508;28;20219;-78
2021/06/08 12:05:24;;;;;;;24.33;22.03;;;23.10;99.90;;;;;;5057731;28;20241;-76
2021/06/08 12:07:53;;;;;;;21.27;19.07;;;23.10;99.90;;;;;;5051382;28;20258;-77
2021/06/08 12:10:31;;;;;;;23.77;21.47;;;23.20;99.90;;;;;;5051461;28;20244;-78
2021/06/08 12:12:59;;;;;;;24.87;22.67;;;23.20;99.90;;;;;;5059073;28;20224;-77
2021/06/08 12:15:27;;;;;;;21.20;18.90;;;23.30;99.90;;;;;;5061621;28;20654;-77
2021/06/08 12:18:04;;;;;;;25.97;23.37;;;23.30;99.90;;;;;;5056216;28;20191;-77
2021/06/08 12:20:31;;;;;;;22.57;20.37;;;23.20;99.90;;;;;;5059006;28;20597;-78
2021/06/08 12:22:58;;;;;;;29.10;26.50;;;23.10;99.90;;;;;;5053259;28;20222;-77
2021/06/08 12:25:26;;;;;;;29.10;26.67;;;23.30;99.90;;;;;;5051912;28;20199;-76
2021/06/08 12:27:52;;;;;;;29.10;26.70;;;23.40;99.90;;;;;;5057170;28;20196;-76
2021/06/08 12:30:22;;;;;;;32.27;29.57;;;23.60;99.90;;;;;;5067974;28;20192;-78
2021/06/08 12:33:00;;;;;;;31.17;28.30;;;23.70;99.90;;;;;;5055749;28;20214;-77
2021/06/08 12:35:31;;;;;;;29.17;26.57;;;23.50;99.90;;;;;;5062174;28;20191;-78
2021/06/08 12:38:09;;;;;;;29.90;27.43;;;23.40;99.90;;;;;;5060792;28;20589;-77
2021/06/08 12:40:35;;;;;;;32.57;29.87;;;23.40;99.90;;;;;;5059729;28;20320;-78
2021/06/08 12:43:03;;;;;;;33.77;30.83;;;23.40;99.90;;;;;;5057608;28;20718;-77